sensor_id;sensor_type;location;lat;lon;timestamp;P1;durP1;ratioP1;P2;durP2;ratioP2
69386;SDS011;56575;48.942;8.404;2023-03-23T00:02:22;1.92;;;0.77;;
69386;SDS011;56575;48.942;8.404;2023-03-23T00:04:49;3.25;;;0.70;;
69386;SDS011;56575;48.942;8.404;2023-03-23T00:07:15;1.67;;;0.70;;
69386;SDS011;56575;48.942;8.404;2023-03-23T00:09:46;2.08;;;0.90;;
69386;SDS011;56575;48.942;8.404;2023-03-23T00:12:22;1.25;;;0.70;;
69386;SDS011;56575;48.942;8.404;2023-03-23T00:15:02;1.52;;;0.70;;
69386;SDS011;56575;48.942;8.404;2023-03-23T00:17:30;2.10;;;0.80;;
69386;SDS011;56575;48.942;8.404;2023-03-23T00:19:58;2.00;;;0.83;;
69386;SDS011;56575;48.942;8.404;2023-03-23T00:22:26;4.13;;;1.38;;
69386;SDS011;56575;48.942;8.404;2023-03-23T00:24:53;1.70;;;0.80;;
69386;SDS011;56575;48.942;8.404;2023-03-23T00:27:19;1.80;;;0.80;;
69386;SDS011;56575;48.942;8.404;2023-03-23T00:29:46;1.43;;;0.80;;
69386;SDS011;56575;48.942;8.404;2023-03-23T00:32:13;1.98;;;0.90;;
69386;SDS011;56575;48.942;8.404;2023-03-23T00:34:39;1.38;;;0.88;;
69386;SDS011;56575;48.942;8.404;2023-03-23T00:37:10;1.50;;;0.80;;
69386;SDS011;56575;48.942;8.404;2023-03-23T00:39:35;1.30;;;0.70;;
69386;SDS011;56575;48.942;8.404;2023-03-23T00:42:03;3.33;;;0.90;;
69386;SDS011;56575;48.942;8.404;2023-03-23T00:44:29;2.63;;;1.02;;
69386;SDS011;56575;48.942;8.404;2023-03-23T00:46:57;2.03;;;0.70;;
69386;SDS011;56575;48.942;8.404;2023-03-23T00:49:25;1.75;;;0.90;;
69386;SDS011;56575;48.942;8.404;2023-03-23T00:51:52;1.57;;;0.90;;
69386;SDS011;56575;48.942;8.404;2023-03-23T00:54:18;3.17;;;1.10;;
69386;SDS011;56575;48.942;8.404;2023-03-23T00:56:44;2.00;;;0.80;;
69386;SDS011;56575;48.942;8.404;2023-03-23T00:59:10;4.63;;;1.10;;
69386;SDS011;56575;48.942;8.404;2023-03-23T01:01:35;1.55;;;0.88;;
69386;SDS011;56575;48.942;8.404;2023-03-23T01:04:01;2.83;;;0.90;;
69386;SDS011;56575;48.942;8.404;2023-03-23T01:06:33;1.85;;;0.75;;
69386;SDS011;56575;48.942;8.404;2023-03-23T01:09:00;2.03;;;1.00;;
69386;SDS011;56575;48.942;8.404;2023-03-23T01:11:28;2.50;;;0.80;;
69386;SDS011;56575;48.942;8.404;2023-03-23T01:13:53;3.10;;;1.10;;
69386;SDS011;56575;48.942;8.404;2023-03-23T01:16:19;1.40;;;0.90;;
69386;SDS011;56575;48.942;8.404;2023-03-23T01:18:44;2.23;;;1.00;;
69386;SDS011;56575;48.942;8.404;2023-03-23T01:21:11;2.47;;;1.00;;
69386;SDS011;56575;48.942;8.404;2023-03-23T01:23:38;1.80;;;1.02;;
69386;SDS011;56575;48.942;8.404;2023-03-23T01:26:11;2.77;;;1.10;;
69386;SDS011;56575;48.942;8.404;2023-03-23T01:28:38;2.88;;;1.02;;
69386;SDS011;56575;48.942;8.404;2023-03-23T01:31:05;2.10;;;1.08;;
69386;SDS011;56575;48.942;8.404;2023-03-23T01:33:32;2.00;;;1.10;;
69386;SDS011;56575;48.942;8.404;2023-03-23T01:36:02;2.73;;;0.83;;
69386;SDS011;56575;48.942;8.404;2023-03-23T01:38:29;2.17;;;0.80;;
69386;SDS011;56575;48.942;8.404;2023-03-23T01:40:56;2.15;;;0.90;;
69386;SDS011;56575;48.942;8.404;2023-03-23T01:43:21;3.37;;;1.10;;
69386;SDS011;56575;48.942;8.404;2023-03-23T01:45:57;3.53;;;1.00;;
69386;SDS011;56575;48.942;8.404;2023-03-23T01:50:55;2.53;;;0.98;;
69386;SDS011;56575;48.942;8.404;2023-03-23T01:53:26;2.95;;;1.00;;
69386;SDS011;56575;48.942;8.404;2023-03-23T01:55:57;2.53;;;0.70;;
69386;SDS011;56575;48.942;8.404;2023-03-23T01:58:26;2.95;;;1.13;;
69386;SDS011;56575;48.942;8.404;2023-03-23T02:00:54;2.50;;;1.10;;
69386;SDS011;56575;48.942;8.404;2023-03-23T02:03:21;2.85;;;1.02;;
69386;SDS011;56575;48.942;8.404;2023-03-23T02:05:48;3.30;;;1.00;;
69386;SDS011;56575;48.942;8.404;2023-03-23T02:08:14;1.90;;;0.90;;
69386;SDS011;56575;48.942;8.404;2023-03-23T02:10:43;3.15;;;1.17;;
69386;SDS011;56575;48.942;8.404;2023-03-23T02:13:09;2.10;;;0.93;;
69386;SDS011;56575;48.942;8.404;2023-03-23T02:15:48;2.15;;;0.88;;
69386;SDS011;56575;48.942;8.404;2023-03-23T02:24:14;2.50;;;0.90;;
69386;SDS011;56575;48.942;8.404;2023-03-23T02:27:11;1.67;;;0.90;;
69386;SDS011;56575;48.942;8.404;2023-03-23T02:35:20;1.52;;;0.80;;
69386;SDS011;56575;48.942;8.404;2023-03-23T02:37:50;2.58;;;1.00;;
69386;SDS011;56575;48.942;8.404;2023-03-23T02:40:25;2.73;;;0.90;;
69386;SDS011;56575;48.942;8.404;2023-03-23T02:42:57;2.25;;;0.90;;
69386;SDS011;56575;48.942;8.404;2023-03-23T02:45:25;1.92;;;1.00;;
69386;SDS011;56575;48.942;8.404;2023-03-23T02:47:55;1.70;;;0.73;;
69386;SDS011;56575;48.942;8.404;2023-03-23T02:50:22;2.35;;;0.98;;
69386;SDS011;56575;48.942;8.404;2023-03-23T02:52:49;1.57;;;0.93;;
69386;SDS011;56575;48.942;8.404;2023-03-23T02:55:18;4.03;;;1.00;;
69386;SDS011;56575;48.942;8.404;2023-03-23T02:57:48;2.83;;;1.20;;
69386;SDS011;56575;48.942;8.404;2023-03-23T03:00:16;1.40;;;0.98;;
69386;SDS011;56575;48.942;8.404;2023-03-23T03:02:44;2.22;;;0.95;;
69386;SDS011;56575;48.942;8.404;2023-03-23T03:08:05;1.73;;;0.98;;
69386;SDS011;56575;48.942;8.404;2023-03-23T03:10:43;2.88;;;1.17;;
69386;SDS011;56575;48.942;8.404;2023-03-23T03:13:18;1.92;;;1.00;;
69386;SDS011;56575;48.942;8.404;2023-03-23T03:18:44;2.43;;;0.80;;
69386;SDS011;56575;48.942;8.404;2023-03-23T03:21:12;2.65;;;1.10;;
69386;SDS011;56575;48.942;8.404;2023-03-23T03:23:40;1.50;;;1.00;;
69386;SDS011;56575;48.942;8.404;2023-03-23T03:26:10;3.30;;;1.25;;
69386;SDS011;56575;48.942;8.404;2023-03-23T03:28:37;3.00;;;1.08;;
69386;SDS011;56575;48.942;8.404;2023-03-23T03:31:04;1.70;;;1.10;;
69386;SDS011;56575;48.942;8.404;2023-03-23T03:33:31;2.00;;;1.00;;
69386;SDS011;56575;48.942;8.404;2023-03-23T03:35:59;1.90;;;1.10;;
69386;SDS011;56575;48.942;8.404;2023-03-23T03:38:27;1.83;;;1.02;;
69386;SDS011;56575;48.942;8.404;2023-03-23T03:40:54;3.08;;;1.27;;
69386;SDS011;56575;48.942;8.404;2023-03-23T03:43:20;1.87;;;1.10;;
69386;SDS011;56575;48.942;8.404;2023-03-23T03:45:45;4.30;;;1.30;;
69386;SDS011;56575;48.942;8.404;2023-03-23T03:48:11;1.83;;;1.00;;
69386;SDS011;56575;48.942;8.404;2023-03-23T03:50:36;3.27;;;1.27;;
69386;SDS011;56575;48.942;8.404;2023-03-23T03:53:02;3.55;;;1.25;;
69386;SDS011;56575;48.942;8.404;2023-03-23T03:55:30;2.70;;;1.10;;
69386;SDS011;56575;48.942;8.404;2023-03-23T03:58:00;4.03;;;1.25;;
69386;SDS011;56575;48.942;8.404;2023-03-23T04:00:27;2.53;;;1.67;;
69386;SDS011;56575;48.942;8.404;2023-03-23T04:02:53;2.05;;;1.30;;
69386;SDS011;56575;48.942;8.404;2023-03-23T04:05:20;2.17;;;1.13;;
69386;SDS011;56575;48.942;8.404;2023-03-23T04:07:47;2.33;;;1.40;;
69386;SDS011;56575;48.942;8.404;2023-03-23T04:10:17;3.40;;;1.40;;
69386;SDS011;56575;48.942;8.404;2023-03-23T04:12:47;3.58;;;1.25;;
69386;SDS011;56575;48.942;8.404;2023-03-23T04:15:14;3.50;;;1.20;;
69386;SDS011;56575;48.942;8.404;2023-03-23T04:17:39;3.70;;;1.20;;
69386;SDS011;56575;48.942;8.404;2023-03-23T04:20:06;1.77;;;1.20;;
69386;SDS011;56575;48.942;8.404;2023-03-23T04:22:41;2.10;;;1.20;;
69386;SDS011;56575;48.942;8.404;2023-03-23T04:25:09;2.63;;;1.20;;
69386;SDS011;56575;48.942;8.404;2023-03-23T04:27:37;2.87;;;1.20;;
69386;SDS011;56575;48.942;8.404;2023-03-23T04:30:08;2.15;;;1.33;;
69386;SDS011;56575;48.942;8.404;2023-03-23T04:32:35;2.00;;;1.05;;
69386;SDS011;56575;48.942;8.404;2023-03-23T04:35:05;3.10;;;1.60;;
69386;SDS011;56575;48.942;8.404;2023-03-23T04:37:31;3.00;;;1.30;;
69386;SDS011;56575;48.942;8.404;2023-03-23T04:39:57;4.43;;;1.30;;
69386;SDS011;56575;48.942;8.404;2023-03-23T04:42:30;2.78;;;1.30;;
69386;SDS011;56575;48.942;8.404;2023-03-23T04:44:56;3.07;;;1.57;;
69386;SDS011;56575;48.942;8.404;2023-03-23T04:47:23;2.92;;;1.30;;
69386;SDS011;56575;48.942;8.404;2023-03-23T04:49:49;3.92;;;1.20;;
69386;SDS011;56575;48.942;8.404;2023-03-23T04:52:16;2.50;;;1.30;;
69386;SDS011;56575;48.942;8.404;2023-03-23T04:54:42;4.53;;;1.50;;
69386;SDS011;56575;48.942;8.404;2023-03-23T04:57:07;2.08;;;1.10;;
69386;SDS011;56575;48.942;8.404;2023-03-23T04:59:33;2.50;;;1.30;;
69386;SDS011;56575;48.942;8.404;2023-03-23T05:01:59;2.92;;;1.30;;
69386;SDS011;56575;48.942;8.404;2023-03-23T05:04:24;3.37;;;1.30;;
69386;SDS011;56575;48.942;8.404;2023-03-23T05:06:50;3.60;;;1.30;;
69386;SDS011;56575;48.942;8.404;2023-03-23T05:09:17;1.77;;;1.10;;
69386;SDS011;56575;48.942;8.404;2023-03-23T05:11:43;3.50;;;1.23;;
69386;SDS011;56575;48.942;8.404;2023-03-23T05:14:08;4.03;;;1.57;;
69386;SDS011;56575;48.942;8.404;2023-03-23T05:16:33;2.90;;;1.20;;
69386;SDS011;56575;48.942;8.404;2023-03-23T05:19:01;2.22;;;1.10;;
69386;SDS011;56575;48.942;8.404;2023-03-23T05:21:27;2.67;;;1.27;;
69386;SDS011;56575;48.942;8.404;2023-03-23T05:23:53;3.95;;;1.50;;
69386;SDS011;56575;48.942;8.404;2023-03-23T05:26:19;2.40;;;1.48;;
69386;SDS011;56575;48.942;8.404;2023-03-23T05:28:48;3.83;;;1.50;;
69386;SDS011;56575;48.942;8.404;2023-03-23T05:31:17;2.88;;;1.50;;
69386;SDS011;56575;48.942;8.404;2023-03-23T05:33:43;3.60;;;1.40;;
69386;SDS011;56575;48.942;8.404;2023-03-23T05:36:09;2.85;;;1.42;;
69386;SDS011;56575;48.942;8.404;2023-03-23T05:38:35;2.80;;;1.50;;
69386;SDS011;56575;48.942;8.404;2023-03-23T05:41:03;5.73;;;1.40;;
69386;SDS011;56575;48.942;8.404;2023-03-23T05:43:29;3.03;;;1.35;;
69386;SDS011;56575;48.942;8.404;2023-03-23T05:45:55;2.87;;;1.43;;
69386;SDS011;56575;48.942;8.404;2023-03-23T05:48:20;3.67;;;1.70;;
69386;SDS011;56575;48.942;8.404;2023-03-23T05:50:45;4.17;;;1.43;;
69386;SDS011;56575;48.942;8.404;2023-03-23T05:53:12;3.90;;;1.95;;
69386;SDS011;56575;48.942;8.404;2023-03-23T05:55:37;3.03;;;1.47;;
69386;SDS011;56575;48.942;8.404;2023-03-23T05:58:03;3.27;;;1.60;;
69386;SDS011;56575;48.942;8.404;2023-03-23T06:00:28;4.88;;;2.00;;
69386;SDS011;56575;48.942;8.404;2023-03-23T06:02:55;5.43;;;2.00;;
69386;SDS011;56575;48.942;8.404;2023-03-23T06:05:22;4.13;;;2.00;;
69386;SDS011;56575;48.942;8.404;2023-03-23T06:07:48;4.03;;;2.08;;
69386;SDS011;56575;48.942;8.404;2023-03-23T06:10:14;3.63;;;2.35;;
69386;SDS011;56575;48.942;8.404;2023-03-23T06:12:41;2.50;;;1.43;;
69386;SDS011;56575;48.942;8.404;2023-03-23T06:15:07;5.07;;;1.90;;
69386;SDS011;56575;48.942;8.404;2023-03-23T06:17:34;4.05;;;2.20;;
69386;SDS011;56575;48.942;8.404;2023-03-23T06:20:01;5.13;;;2.08;;
69386;SDS011;56575;48.942;8.404;2023-03-23T06:22:29;5.07;;;2.10;;
69386;SDS011;56575;48.942;8.404;2023-03-23T06:24:55;3.72;;;1.92;;
69386;SDS011;56575;48.942;8.404;2023-03-23T06:27:22;2.97;;;1.80;;
69386;SDS011;56575;48.942;8.404;2023-03-23T06:29:48;3.23;;;1.57;;
69386;SDS011;56575;48.942;8.404;2023-03-23T06:32:14;2.88;;;1.67;;
69386;SDS011;56575;48.942;8.404;2023-03-23T06:34:40;3.20;;;1.80;;
69386;SDS011;56575;48.942;8.404;2023-03-23T06:37:09;3.00;;;1.80;;
69386;SDS011;56575;48.942;8.404;2023-03-23T06:39:35;3.83;;;2.00;;
69386;SDS011;56575;48.942;8.404;2023-03-23T06:42:02;3.42;;;1.67;;
69386;SDS011;56575;48.942;8.404;2023-03-23T06:44:28;2.97;;;1.60;;
69386;SDS011;56575;48.942;8.404;2023-03-23T06:46:53;2.80;;;1.80;;
69386;SDS011;56575;48.942;8.404;2023-03-23T06:49:19;3.23;;;1.70;;
69386;SDS011;56575;48.942;8.404;2023-03-23T06:51:44;4.43;;;1.75;;
69386;SDS011;56575;48.942;8.404;2023-03-23T06:54:10;3.23;;;1.70;;
69386;SDS011;56575;48.942;8.404;2023-03-23T06:56:35;2.80;;;1.40;;
69386;SDS011;56575;48.942;8.404;2023-03-23T06:59:01;3.33;;;1.80;;
69386;SDS011;56575;48.942;8.404;2023-03-23T07:01:26;3.35;;;1.75;;
69386;SDS011;56575;48.942;8.404;2023-03-23T07:03:54;5.53;;;1.98;;
69386;SDS011;56575;48.942;8.404;2023-03-23T07:06:20;3.67;;;1.75;;
69386;SDS011;56575;48.942;8.404;2023-03-23T07:08:46;3.70;;;2.00;;
69386;SDS011;56575;48.942;8.404;2023-03-23T07:11:12;4.03;;;1.92;;
69386;SDS011;56575;48.942;8.404;2023-03-23T07:13:37;4.40;;;2.00;;
69386;SDS011;56575;48.942;8.404;2023-03-23T07:16:06;5.03;;;1.98;;
69386;SDS011;56575;48.942;8.404;2023-03-23T07:18:32;3.27;;;1.73;;
69386;SDS011;56575;48.942;8.404;2023-03-23T07:20:58;4.80;;;2.00;;
69386;SDS011;56575;48.942;8.404;2023-03-23T07:23:24;3.97;;;2.38;;
69386;SDS011;56575;48.942;8.404;2023-03-23T07:25:49;9.83;;;2.60;;
69386;SDS011;56575;48.942;8.404;2023-03-23T07:28:15;3.37;;;2.00;;
69386;SDS011;56575;48.942;8.404;2023-03-23T07:30:41;3.75;;;1.90;;
69386;SDS011;56575;48.942;8.404;2023-03-23T07:33:07;3.47;;;2.13;;
69386;SDS011;56575;48.942;8.404;2023-03-23T07:35:34;4.63;;;2.35;;
69386;SDS011;56575;48.942;8.404;2023-03-23T07:38:00;5.90;;;2.30;;
69386;SDS011;56575;48.942;8.404;2023-03-23T07:40:27;3.40;;;2.10;;
69386;SDS011;56575;48.942;8.404;2023-03-23T07:42:54;6.75;;;2.25;;
69386;SDS011;56575;48.942;8.404;2023-03-23T07:45:21;5.75;;;2.50;;
69386;SDS011;56575;48.942;8.404;2023-03-23T07:47:47;4.05;;;2.33;;
69386;SDS011;56575;48.942;8.404;2023-03-23T07:50:12;4.60;;;2.47;;
69386;SDS011;56575;48.942;8.404;2023-03-23T07:52:39;4.57;;;2.25;;
69386;SDS011;56575;48.942;8.404;2023-03-23T07:55:07;4.83;;;2.23;;
69386;SDS011;56575;48.942;8.404;2023-03-23T07:57:36;4.43;;;1.80;;
69386;SDS011;56575;48.942;8.404;2023-03-23T08:00:03;6.45;;;2.20;;
69386;SDS011;56575;48.942;8.404;2023-03-23T08:02:36;4.40;;;2.05;;
69386;SDS011;56575;48.942;8.404;2023-03-23T08:05:01;4.13;;;2.33;;
69386;SDS011;56575;48.942;8.404;2023-03-23T08:07:27;3.63;;;1.80;;
69386;SDS011;56575;48.942;8.404;2023-03-23T08:09:52;3.83;;;1.90;;
69386;SDS011;56575;48.942;8.404;2023-03-23T08:12:18;3.60;;;2.10;;
69386;SDS011;56575;48.942;8.404;2023-03-23T08:14:43;3.50;;;1.93;;
69386;SDS011;56575;48.942;8.404;2023-03-23T08:17:08;5.00;;;1.93;;
69386;SDS011;56575;48.942;8.404;2023-03-23T08:19:34;4.68;;;2.05;;
69386;SDS011;56575;48.942;8.404;2023-03-23T08:22:02;4.50;;;2.00;;
69386;SDS011;56575;48.942;8.404;2023-03-23T08:24:28;5.13;;;1.90;;
69386;SDS011;56575;48.942;8.404;2023-03-23T08:26:54;5.18;;;2.13;;
69386;SDS011;56575;48.942;8.404;2023-03-23T08:29:19;5.07;;;2.17;;
69386;SDS011;56575;48.942;8.404;2023-03-23T08:31:45;3.90;;;1.97;;
69386;SDS011;56575;48.942;8.404;2023-03-23T08:34:10;4.03;;;1.90;;
69386;SDS011;56575;48.942;8.404;2023-03-23T08:36:36;5.13;;;1.98;;
69386;SDS011;56575;48.942;8.404;2023-03-23T08:39:02;4.35;;;2.20;;
69386;SDS011;56575;48.942;8.404;2023-03-23T08:41:31;5.03;;;2.50;;
69386;SDS011;56575;48.942;8.404;2023-03-23T08:43:57;4.23;;;2.10;;
69386;SDS011;56575;48.942;8.404;2023-03-23T08:46:22;4.82;;;2.25;;
69386;SDS011;56575;48.942;8.404;2023-03-23T08:48:48;5.83;;;2.50;;
69386;SDS011;56575;48.942;8.404;2023-03-23T08:51:13;5.27;;;2.10;;
69386;SDS011;56575;48.942;8.404;2023-03-23T08:53:39;3.55;;;2.00;;
69386;SDS011;56575;48.942;8.404;2023-03-23T08:56:08;3.27;;;1.90;;
69386;SDS011;56575;48.942;8.404;2023-03-23T08:58:37;3.53;;;1.90;;
69386;SDS011;56575;48.942;8.404;2023-03-23T09:01:04;4.15;;;2.00;;
69386;SDS011;56575;48.942;8.404;2023-03-23T09:03:31;5.27;;;1.60;;
69386;SDS011;56575;48.942;8.404;2023-03-23T09:05:58;4.90;;;1.83;;
69386;SDS011;56575;48.942;8.404;2023-03-23T09:08:28;3.88;;;1.50;;
69386;SDS011;56575;48.942;8.404;2023-03-23T09:13:46;2.95;;;1.50;;
69386;SDS011;56575;48.942;8.404;2023-03-23T09:16:11;3.40;;;1.30;;
69386;SDS011;56575;48.942;8.404;2023-03-23T09:18:37;2.77;;;1.50;;
69386;SDS011;56575;48.942;8.404;2023-03-23T09:21:03;3.72;;;1.50;;
69386;SDS011;56575;48.942;8.404;2023-03-23T09:23:29;3.33;;;1.33;;
69386;SDS011;56575;48.942;8.404;2023-03-23T09:25:55;3.87;;;1.40;;
69386;SDS011;56575;48.942;8.404;2023-03-23T09:28:21;3.22;;;1.35;;
69386;SDS011;56575;48.942;8.404;2023-03-23T09:30:47;5.67;;;1.40;;
69386;SDS011;56575;48.942;8.404;2023-03-23T09:33:12;3.42;;;1.40;;
69386;SDS011;56575;48.942;8.404;2023-03-23T09:35:38;2.63;;;1.30;;
69386;SDS011;56575;48.942;8.404;2023-03-23T09:38:06;2.83;;;1.30;;
69386;SDS011;56575;48.942;8.404;2023-03-23T09:43:25;3.25;;;0.85;;
69386;SDS011;56575;48.942;8.404;2023-03-23T09:51:45;3.53;;;1.08;;
69386;SDS011;56575;48.942;8.404;2023-03-23T09:56:59;2.15;;;1.00;;
69386;SDS011;56575;48.942;8.404;2023-03-23T09:59:30;2.40;;;0.93;;
69386;SDS011;56575;48.942;8.404;2023-03-23T10:02:21;2.55;;;1.02;;
69386;SDS011;56575;48.942;8.404;2023-03-23T10:04:54;2.63;;;1.00;;
69386;SDS011;56575;48.942;8.404;2023-03-23T10:07:25;3.63;;;1.50;;
69386;SDS011;56575;48.942;8.404;2023-03-23T10:09:55;2.97;;;1.15;;
69386;SDS011;56575;48.942;8.404;2023-03-23T10:25:48;3.00;;;1.10;;
69386;SDS011;56575;48.942;8.404;2023-03-23T10:28:37;3.33;;;1.30;;
69386;SDS011;56575;48.942;8.404;2023-03-23T10:31:11;2.17;;;1.10;;
69386;SDS011;56575;48.942;8.404;2023-03-23T10:33:54;2.23;;;1.13;;
69386;SDS011;56575;48.942;8.404;2023-03-23T10:39:00;2.25;;;1.00;;
69386;SDS011;56575;48.942;8.404;2023-03-23T10:41:26;2.38;;;0.98;;
69386;SDS011;56575;48.942;8.404;2023-03-23T10:43:52;2.93;;;1.20;;
69386;SDS011;56575;48.942;8.404;2023-03-23T10:49:13;2.28;;;1.23;;
69386;SDS011;56575;48.942;8.404;2023-03-23T10:51:53;3.25;;;1.40;;
69386;SDS011;56575;48.942;8.404;2023-03-23T10:54:36;2.45;;;1.10;;
69386;SDS011;56575;48.942;8.404;2023-03-23T10:57:21;3.23;;;1.23;;
69386;SDS011;56575;48.942;8.404;2023-03-23T10:59:57;3.50;;;1.75;;
69386;SDS011;56575;48.942;8.404;2023-03-23T11:02:31;4.00;;;1.50;;
69386;SDS011;56575;48.942;8.404;2023-03-23T11:05:03;3.28;;;1.20;;
69386;SDS011;56575;48.942;8.404;2023-03-23T11:07:34;2.90;;;1.17;;
69386;SDS011;56575;48.942;8.404;2023-03-23T11:10:05;3.70;;;1.33;;
69386;SDS011;56575;48.942;8.404;2023-03-23T11:12:33;5.00;;;1.55;;
69386;SDS011;56575;48.942;8.404;2023-03-23T11:15:04;3.05;;;1.50;;
69386;SDS011;56575;48.942;8.404;2023-03-23T11:17:41;3.65;;;1.33;;
69386;SDS011;56575;48.942;8.404;2023-03-23T11:20:10;4.57;;;1.70;;
69386;SDS011;56575;48.942;8.404;2023-03-23T11:22:37;2.35;;;1.50;;
69386;SDS011;56575;48.942;8.404;2023-03-23T11:25:04;4.97;;;1.60;;
69386;SDS011;56575;48.942;8.404;2023-03-23T11:27:32;4.60;;;1.98;;
69386;SDS011;56575;48.942;8.404;2023-03-23T11:30:09;3.00;;;1.77;;
69386;SDS011;56575;48.942;8.404;2023-03-23T11:32:42;3.43;;;1.80;;
69386;SDS011;56575;48.942;8.404;2023-03-23T11:35:19;3.55;;;1.70;;
69386;SDS011;56575;48.942;8.404;2023-03-23T11:37:48;3.55;;;1.80;;
69386;SDS011;56575;48.942;8.404;2023-03-23T11:40:15;3.90;;;2.00;;
69386;SDS011;56575;48.942;8.404;2023-03-23T11:45:18;3.23;;;1.93;;
69386;SDS011;56575;48.942;8.404;2023-03-23T11:51:08;3.45;;;2.00;;
69386;SDS011;56575;48.942;8.404;2023-03-23T11:56:42;4.03;;;2.00;;
69386;SDS011;56575;48.942;8.404;2023-03-23T11:59:10;4.40;;;2.47;;
69386;SDS011;56575;48.942;8.404;2023-03-23T12:01:47;3.15;;;1.83;;
69386;SDS011;56575;48.942;8.404;2023-03-23T12:13:13;4.40;;;1.60;;
69386;SDS011;56575;48.942;8.404;2023-03-23T12:18:40;3.60;;;1.80;;
69386;SDS011;56575;48.942;8.404;2023-03-23T12:37:58;2.67;;;1.55;;
69386;SDS011;56575;48.942;8.404;2023-03-23T12:40:40;2.47;;;1.40;;
69386;SDS011;56575;48.942;8.404;2023-03-23T12:43:33;2.30;;;1.42;;
69386;SDS011;56575;48.942;8.404;2023-03-23T12:46:14;2.80;;;1.27;;
69386;SDS011;56575;48.942;8.404;2023-03-23T12:48:43;2.75;;;1.30;;
69386;SDS011;56575;48.942;8.404;2023-03-23T12:51:32;3.97;;;1.60;;
69386;SDS011;56575;48.942;8.404;2023-03-23T12:54:07;2.87;;;1.10;;
69386;SDS011;56575;48.942;8.404;2023-03-23T12:56:43;3.45;;;1.33;;
69386;SDS011;56575;48.942;8.404;2023-03-23T13:05:34;3.05;;;1.35;;
69386;SDS011;56575;48.942;8.404;2023-03-23T13:10:50;4.47;;;1.55;;
69386;SDS011;56575;48.942;8.404;2023-03-23T13:13:19;2.97;;;1.70;;
69386;SDS011;56575;48.942;8.404;2023-03-23T13:15:55;2.60;;;1.55;;
69386;SDS011;56575;48.942;8.404;2023-03-23T13:21:02;5.70;;;2.37;;
69386;SDS011;56575;48.942;8.404;2023-03-23T13:23:36;5.13;;;2.40;;
69386;SDS011;56575;48.942;8.404;2023-03-23T13:26:14;2.80;;;1.53;;
69386;SDS011;56575;48.942;8.404;2023-03-23T13:31:39;2.83;;;1.60;;
69386;SDS011;56575;48.942;8.404;2023-03-23T13:39:27;3.57;;;2.03;;
69386;SDS011;56575;48.942;8.404;2023-03-23T13:44:39;3.95;;;2.30;;
69386;SDS011;56575;48.942;8.404;2023-03-23T13:47:14;4.90;;;2.38;;
69386;SDS011;56575;48.942;8.404;2023-03-23T13:50:00;4.05;;;2.00;;
69386;SDS011;56575;48.942;8.404;2023-03-23T13:56:04;3.53;;;2.17;;
69386;SDS011;56575;48.942;8.404;2023-03-23T14:11:10;4.10;;;2.13;;
69386;SDS011;56575;48.942;8.404;2023-03-23T14:13:43;4.00;;;2.22;;
69386;SDS011;56575;48.942;8.404;2023-03-23T14:16:22;4.33;;;2.37;;
69386;SDS011;56575;48.942;8.404;2023-03-23T14:18:51;3.45;;;1.92;;
69386;SDS011;56575;48.942;8.404;2023-03-23T14:21:31;3.58;;;2.20;;
69386;SDS011;56575;48.942;8.404;2023-03-23T14:26:48;3.28;;;2.10;;
69386;SDS011;56575;48.942;8.404;2023-03-23T14:29:17;4.83;;;2.10;;
69386;SDS011;56575;48.942;8.404;2023-03-23T14:31:43;4.07;;;2.38;;
69386;SDS011;56575;48.942;8.404;2023-03-23T14:34:13;3.13;;;2.15;;
69386;SDS011;56575;48.942;8.404;2023-03-23T14:36:42;4.03;;;2.13;;
69386;SDS011;56575;48.942;8.404;2023-03-23T14:39:15;5.07;;;2.00;;
69386;SDS011;56575;48.942;8.404;2023-03-23T14:41:49;5.43;;;2.50;;
69386;SDS011;56575;48.942;8.404;2023-03-23T14:44:18;4.13;;;2.17;;
69386;SDS011;56575;48.942;8.404;2023-03-23T14:49:46;5.13;;;2.13;;
69386;SDS011;56575;48.942;8.404;2023-03-23T14:52:15;4.23;;;2.10;;
69386;SDS011;56575;48.942;8.404;2023-03-23T14:54:48;4.20;;;2.13;;
69386;SDS011;56575;48.942;8.404;2023-03-23T14:57:15;4.78;;;2.28;;
69386;SDS011;56575;48.942;8.404;2023-03-23T14:59:45;3.30;;;1.80;;
69386;SDS011;56575;48.942;8.404;2023-03-23T15:02:13;4.53;;;2.28;;
69386;SDS011;56575;48.942;8.404;2023-03-23T15:04:42;4.40;;;2.40;;
69386;SDS011;56575;48.942;8.404;2023-03-23T15:07:10;4.38;;;2.20;;
69386;SDS011;56575;48.942;8.404;2023-03-23T15:09:42;3.65;;;2.30;;
69386;SDS011;56575;48.942;8.404;2023-03-23T15:12:13;4.03;;;2.00;;
69386;SDS011;56575;48.942;8.404;2023-03-23T15:14:50;3.92;;;2.30;;
69386;SDS011;56575;48.942;8.404;2023-03-23T15:17:24;3.77;;;1.97;;
69386;SDS011;56575;48.942;8.404;2023-03-23T15:19:52;4.95;;;2.20;;
69386;SDS011;56575;48.942;8.404;2023-03-23T15:22:23;4.68;;;2.30;;
69386;SDS011;56575;48.942;8.404;2023-03-23T15:25:28;4.32;;;2.03;;
69386;SDS011;56575;48.942;8.404;2023-03-23T15:27:52;3.50;;;2.08;;
69386;SDS011;56575;48.942;8.404;2023-03-23T15:32:49;5.75;;;2.10;;
69386;SDS011;56575;48.942;8.404;2023-03-23T15:35:19;4.93;;;2.22;;
69386;SDS011;56575;48.942;8.404;2023-03-23T15:38:33;4.38;;;2.20;;
69386;SDS011;56575;48.942;8.404;2023-03-23T15:40:44;4.00;;;2.30;;
69386;SDS011;56575;48.942;8.404;2023-03-23T15:43:16;3.63;;;2.13;;
69386;SDS011;56575;48.942;8.404;2023-03-23T15:45:53;4.95;;;2.10;;
69386;SDS011;56575;48.942;8.404;2023-03-23T15:48:44;5.43;;;1.90;;
69386;SDS011;56575;48.942;8.404;2023-03-23T15:51:11;3.83;;;2.17;;
69386;SDS011;56575;48.942;8.404;2023-03-23T15:53:38;4.50;;;2.20;;
69386;SDS011;56575;48.942;8.404;2023-03-23T15:56:05;3.10;;;2.00;;
69386;SDS011;56575;48.942;8.404;2023-03-23T15:58:32;4.03;;;2.25;;
69386;SDS011;56575;48.942;8.404;2023-03-23T16:00:59;5.03;;;2.30;;
69386;SDS011;56575;48.942;8.404;2023-03-23T16:03:33;4.03;;;2.10;;
69386;SDS011;56575;48.942;8.404;2023-03-23T16:06:05;3.55;;;2.20;;
69386;SDS011;56575;48.942;8.404;2023-03-23T16:08:34;4.17;;;2.30;;
69386;SDS011;56575;48.942;8.404;2023-03-23T16:11:04;4.93;;;2.38;;
69386;SDS011;56575;48.942;8.404;2023-03-23T16:13:31;5.93;;;2.60;;
69386;SDS011;56575;48.942;8.404;2023-03-23T16:15:56;7.10;;;3.27;;
69386;SDS011;56575;48.942;8.404;2023-03-23T16:18:21;6.23;;;3.53;;
69386;SDS011;56575;48.942;8.404;2023-03-23T16:20:47;5.70;;;3.47;;
69386;SDS011;56575;48.942;8.404;2023-03-23T16:23:14;6.50;;;3.53;;
69386;SDS011;56575;48.942;8.404;2023-03-23T16:25:39;7.65;;;4.55;;
69386;SDS011;56575;48.942;8.404;2023-03-23T16:28:07;5.85;;;3.95;;
69386;SDS011;56575;48.942;8.404;2023-03-23T16:30:35;8.17;;;4.50;;
69386;SDS011;56575;48.942;8.404;2023-03-23T16:33:01;9.35;;;4.20;;
69386;SDS011;56575;48.942;8.404;2023-03-23T16:35:26;7.03;;;4.10;;
69386;SDS011;56575;48.942;8.404;2023-03-23T16:37:52;8.13;;;4.23;;
69386;SDS011;56575;48.942;8.404;2023-03-23T16:40:19;8.20;;;4.57;;
69386;SDS011;56575;48.942;8.404;2023-03-23T16:42:45;6.40;;;3.90;;
69386;SDS011;56575;48.942;8.404;2023-03-23T16:45:12;8.70;;;4.50;;
69386;SDS011;56575;48.942;8.404;2023-03-23T16:47:41;7.97;;;4.10;;
69386;SDS011;56575;48.942;8.404;2023-03-23T16:50:40;7.18;;;3.95;;
69386;SDS011;56575;48.942;8.404;2023-03-23T16:53:07;5.53;;;3.10;;
69386;SDS011;56575;48.942;8.404;2023-03-23T16:55:34;5.57;;;3.20;;
69386;SDS011;56575;48.942;8.404;2023-03-23T16:58:01;6.80;;;3.05;;
69386;SDS011;56575;48.942;8.404;2023-03-23T17:00:26;6.43;;;3.27;;
69386;SDS011;56575;48.942;8.404;2023-03-23T17:02:52;6.50;;;2.78;;
69386;SDS011;56575;48.942;8.404;2023-03-23T17:05:21;7.10;;;3.47;;
69386;SDS011;56575;48.942;8.404;2023-03-23T17:07:48;4.90;;;2.88;;
69386;SDS011;56575;48.942;8.404;2023-03-23T17:10:14;7.40;;;3.30;;
69386;SDS011;56575;48.942;8.404;2023-03-23T17:12:41;6.93;;;3.80;;
69386;SDS011;56575;48.942;8.404;2023-03-23T17:15:07;7.43;;;3.67;;
69386;SDS011;56575;48.942;8.404;2023-03-23T17:17:34;6.73;;;3.43;;